createdAt,value
2018-07-30T00:00:07.866Z,19.00
2018-07-30T00:01:07.853Z,19.00
2018-07-30T00:02:07.843Z,19.00
2018-07-30T00:03:07.825Z,19.08
2018-07-30T00:04:07.821Z,19.04
2018-07-30T00:05:07.809Z,19.04
2018-07-30T00:06:07.795Z,19.08
2018-07-30T00:07:07.785Z,19.08
2018-07-30T00:08:07.771Z,19.11
2018-07-30T00:09:07.768Z,19.09
2018-07-30T00:10:07.758Z,19.09
2018-07-30T00:11:07.745Z,18.99
2018-07-30T00:12:07.735Z,19.15
2018-07-30T00:13:07.720Z,19.15
2018-07-30T00:14:07.715Z,19.08
2018-07-30T00:15:07.693Z,19.19
2018-07-30T00:16:07.683Z,19.14
2018-07-30T00:17:07.677Z,19.21
2018-07-30T00:18:07.665Z,19.02
2018-07-30T00:19:07.658Z,19.00
2018-07-30T00:20:07.641Z,19.07
2018-07-30T00:21:07.636Z,19.00
2018-07-30T00:22:07.641Z,19.12
2018-07-30T00:23:07.620Z,19.19
2018-07-30T00:24:07.603Z,19.37
2018-07-30T00:25:07.592Z,19.37
2018-07-30T00:26:07.582Z,19.39
2018-07-30T00:27:07.565Z,19.34
2018-07-30T00:28:07.551Z,19.41
2018-07-30T00:29:07.548Z,19.49
2018-07-30T00:30:07.534Z,19.49
2018-07-30T00:31:07.528Z,19.44
2018-07-30T00:32:07.516Z,19.47
2018-07-30T00:33:07.502Z,19.41
2018-07-30T00:34:07.488Z,19.48
2018-07-30T00:35:07.474Z,19.51
2018-07-30T00:36:07.471Z,19.40
2018-07-30T00:37:07.460Z,19.48
2018-07-30T00:38:07.446Z,19.49
2018-07-30T00:39:07.448Z,19.51
2018-07-30T00:40:07.420Z,19.54
2018-07-30T00:41:07.410Z,19.45
2018-07-30T00:42:07.403Z,19.54
2018-07-30T00:43:07.393Z,19.59
2018-07-30T00:44:07.381Z,19.54
2018-07-30T00:45:07.370Z,19.55
2018-07-30T00:46:07.354Z,19.63
2018-07-30T00:47:07.344Z,19.62
2018-07-30T00:48:07.382Z,19.66
2018-07-30T00:49:07.322Z,19.63
2018-07-30T00:50:07.314Z,19.73
2018-07-30T00:51:07.306Z,19.64
2018-07-30T00:52:07.288Z,19.70
2018-07-30T00:53:07.275Z,19.69
2018-07-30T00:54:07.270Z,19.73
2018-07-30T00:55:07.262Z,19.73
2018-07-30T00:56:07.249Z,19.66
2018-07-30T00:57:07.238Z,19.73
2018-07-30T00:58:07.227Z,19.70
2018-07-30T00:59:07.209Z,19.67
2018-07-30T01:00:07.199Z,19.70
2018-07-30T01:01:07.189Z,19.70
2018-07-30T01:02:07.184Z,19.66
2018-07-30T01:03:07.195Z,19.63
2018-07-30T01:04:07.175Z,19.67
2018-07-30T01:05:07.148Z,19.73
2018-07-30T01:06:07.139Z,19.74
2018-07-30T01:07:07.122Z,19.82
2018-07-30T01:08:07.115Z,19.81
2018-07-30T01:09:07.103Z,19.63
2018-07-30T01:10:07.096Z,19.67
2018-07-30T01:11:07.088Z,19.63
2018-07-30T01:12:07.067Z,19.77
2018-07-30T01:13:07.056Z,19.81
2018-07-30T01:14:07.064Z,19.79
2018-07-30T01:15:07.039Z,19.70
2018-07-30T01:16:07.054Z,19.76
2018-07-30T01:17:07.019Z,19.67
2018-07-30T01:18:07.002Z,19.81
2018-07-30T01:19:06.994Z,19.77
2018-07-30T01:20:06.980Z,19.81
2018-07-30T01:21:06.970Z,19.81
2018-07-30T01:22:06.965Z,19.67
2018-07-30T01:23:06.951Z,19.73
2018-07-30T01:24:06.933Z,19.66
2018-07-30T01:25:06.925Z,19.66
2018-07-30T01:26:06.916Z,19.64
2018-07-30T01:27:06.910Z,19.56
2018-07-30T01:28:06.896Z,19.51
2018-07-30T01:29:06.883Z,19.49
2018-07-30T01:30:06.869Z,19.49
2018-07-30T01:31:06.857Z,19.31
2018-07-30T01:32:06.851Z,19.36
2018-07-30T01:33:06.836Z,19.33
2018-07-30T01:34:06.848Z,19.21
2018-07-30T01:35:06.819Z,19.19
2018-07-30T01:36:06.808Z,19.19
2018-07-30T01:37:06.808Z,19.18
2018-07-30T01:38:06.781Z,19.08
2018-07-30T01:39:06.769Z,19.02
2018-07-30T01:40:06.764Z,19.04
2018-07-30T01:41:06.749Z,18.96
2018-07-30T01:42:06.740Z,18.96
2018-07-30T01:43:06.731Z,18.88
2018-07-30T01:44:06.713Z,18.84
2018-07-30T01:45:06.710Z,18.86
2018-07-30T01:46:06.696Z,18.78
2018-07-30T01:47:06.690Z,18.77
2018-07-30T01:48:06.678Z,18.73
2018-07-30T01:49:06.681Z,18.74
2018-07-30T01:50:06.650Z,18.60
2018-07-30T01:51:06.636Z,18.62
2018-07-30T01:52:06.632Z,18.59
2018-07-30T01:53:06.635Z,18.58
2018-07-30T01:54:06.603Z,18.53
2018-07-30T01:55:06.596Z,18.52
2018-07-30T01:56:06.589Z,18.45
2018-07-30T01:57:06.600Z,18.43
2018-07-30T01:58:06.560Z,18.34
2018-07-30T01:59:06.551Z,18.33
2018-07-30T02:00:06.540Z,18.28
2018-07-30T02:01:06.528Z,18.23
2018-07-30T02:02:06.541Z,18.18
2018-07-30T02:03:06.515Z,18.18
2018-07-30T02:04:06.498Z,18.13
2018-07-30T02:05:06.491Z,18.13
2018-07-30T02:06:06.474Z,18.04
2018-07-30T02:07:06.542Z,18.04
2018-07-30T02:08:06.454Z,18.05
2018-07-30T02:09:06.444Z,18.00
2018-07-30T02:10:06.449Z,18.05
2018-07-30T02:11:06.425Z,18.00
2018-07-30T02:12:06.411Z,17.95
2018-07-30T02:13:06.401Z,17.97
2018-07-30T02:14:06.396Z,17.87
2018-07-30T02:15:06.382Z,17.86
2018-07-30T02:16:06.373Z,17.85
2018-07-30T02:17:06.376Z,17.74
2018-07-30T02:18:06.364Z,17.70
2018-07-30T02:19:06.362Z,17.65
2018-07-30T02:20:06.330Z,17.64
2018-07-30T02:21:06.313Z,17.64
2018-07-30T02:22:06.320Z,17.52
2018-07-30T02:23:06.326Z,17.51
2018-07-30T02:24:06.287Z,17.54
2018-07-30T02:25:06.285Z,17.52
2018-07-30T02:26:06.259Z,17.59
2018-07-30T02:27:06.269Z,17.56
2018-07-30T02:28:06.243Z,17.63
2018-07-30T02:29:06.244Z,17.49
2018-07-30T02:30:06.217Z,17.59
2018-07-30T02:31:06.209Z,17.56
2018-07-30T02:32:06.199Z,17.60
2018-07-30T02:33:06.215Z,17.68
2018-07-30T02:34:06.180Z,17.71
2018-07-30T02:35:06.166Z,17.80
2018-07-30T02:36:06.158Z,17.82
2018-07-30T02:37:06.148Z,17.82
2018-07-30T02:38:06.130Z,17.86
2018-07-30T02:39:06.124Z,17.86
2018-07-30T02:40:06.114Z,17.92
2018-07-30T02:41:06.097Z,17.92
2018-07-30T02:42:06.143Z,17.85
2018-07-30T02:43:06.081Z,17.97
2018-07-30T02:44:06.073Z,17.95
2018-07-30T02:45:06.055Z,18.03
2018-07-30T02:46:06.054Z,18.01
2018-07-30T02:47:06.040Z,18.01
2018-07-30T02:48:06.027Z,18.01
2018-07-30T02:49:06.038Z,18.05
2018-07-30T02:50:06.006Z,18.07
2018-07-30T02:51:05.999Z,18.16
2018-07-30T02:52:05.982Z,18.26
2018-07-30T02:53:05.969Z,18.19
2018-07-30T02:54:05.985Z,18.18
2018-07-30T02:55:05.952Z,18.18
2018-07-30T02:56:05.941Z,18.10
2018-07-30T02:57:05.938Z,18.04
2018-07-30T02:58:05.926Z,17.97
2018-07-30T02:59:05.927Z,18.00
2018-07-30T03:00:05.903Z,17.98
2018-07-30T03:01:05.891Z,17.98
2018-07-30T03:02:05.873Z,17.97
2018-07-30T03:03:05.864Z,17.97
2018-07-30T03:04:05.877Z,17.92
2018-07-30T03:05:05.851Z,17.86
2018-07-30T03:06:05.857Z,17.89
2018-07-30T03:07:05.833Z,17.94
2018-07-30T03:08:05.811Z,17.86
2018-07-30T03:09:05.801Z,17.92
2018-07-30T03:10:05.793Z,17.86
2018-07-30T03:11:05.780Z,17.89
2018-07-30T03:12:05.769Z,17.92
2018-07-30T03:13:05.763Z,17.92
2018-07-30T03:14:05.766Z,17.92
2018-07-30T03:15:05.755Z,17.92
2018-07-30T03:16:05.736Z,17.94
2018-07-30T03:17:05.720Z,17.95
2018-07-30T03:18:05.703Z,18.00
2018-07-30T03:19:05.697Z,17.98
2018-07-30T03:20:05.695Z,18.05
2018-07-30T03:21:05.668Z,18.16
2018-07-30T03:22:05.669Z,18.10
2018-07-30T03:23:05.651Z,18.18
2018-07-30T03:24:05.668Z,18.18
2018-07-30T03:25:05.632Z,18.22
2018-07-30T03:26:05.617Z,18.31
2018-07-30T03:27:05.606Z,18.37
2018-07-30T03:28:05.600Z,18.50
2018-07-30T03:29:05.593Z,18.47
2018-07-30T03:30:05.581Z,18.44
2018-07-30T03:31:05.566Z,18.44
2018-07-30T03:32:05.552Z,18.38
2018-07-30T03:33:05.538Z,18.40
2018-07-30T03:34:05.546Z,18.33
2018-07-30T03:35:05.552Z,18.31
2018-07-30T03:36:05.522Z,18.26
2018-07-30T03:37:05.530Z,18.34
2018-07-30T03:38:05.489Z,18.28
2018-07-30T03:39:05.490Z,18.20
2018-07-30T03:40:05.493Z,18.25
2018-07-30T03:41:05.460Z,18.28
2018-07-30T03:42:05.448Z,18.31
2018-07-30T03:43:05.435Z,18.23
2018-07-30T03:44:05.424Z,18.29
2018-07-30T03:45:05.424Z,18.22
2018-07-30T03:46:05.445Z,18.23
2018-07-30T03:47:05.389Z,18.25
2018-07-30T03:48:05.388Z,18.28
2018-07-30T03:49:05.373Z,18.28
2018-07-30T03:50:05.357Z,18.25
2018-07-30T03:51:05.397Z,18.20
2018-07-30T03:52:05.353Z,18.20
2018-07-30T03:53:05.324Z,18.26
2018-07-30T03:54:05.318Z,18.16
2018-07-30T03:55:05.307Z,18.10
2018-07-30T03:56:05.310Z,18.19
2018-07-30T03:57:05.286Z,18.23
2018-07-30T03:58:05.340Z,18.18
2018-07-30T03:59:05.260Z,18.15
2018-07-30T04:00:05.330Z,18.15
2018-07-30T04:01:05.241Z,18.07
2018-07-30T04:02:05.232Z,17.95
2018-07-30T04:03:05.237Z,17.95
2018-07-30T04:04:05.243Z,18.03
2018-07-30T04:05:05.193Z,18.00
2018-07-30T04:06:05.234Z,18.03
2018-07-30T04:07:05.177Z,18.03
2018-07-30T04:08:05.167Z,18.03
2018-07-30T04:09:05.160Z,18.05
2018-07-30T04:10:05.155Z,17.94
2018-07-30T04:11:05.156Z,17.90
2018-07-30T04:12:05.134Z,17.92
2018-07-30T04:13:05.108Z,17.90
2018-07-30T04:14:05.104Z,18.00
2018-07-30T04:15:05.099Z,18.10
2018-07-30T04:16:05.088Z,18.16
2018-07-30T04:17:05.072Z,18.19
2018-07-30T04:18:05.056Z,18.35
2018-07-30T04:19:05.056Z,18.41
2018-07-30T04:20:05.039Z,18.52
2018-07-30T04:21:05.050Z,18.55
2018-07-30T04:22:05.070Z,18.58
2018-07-30T04:23:05.019Z,18.60
2018-07-30T04:24:04.993Z,18.60
2018-07-30T04:25:04.981Z,18.60
2018-07-30T04:26:05.012Z,18.58
2018-07-30T04:27:04.969Z,18.60
2018-07-30T04:28:04.962Z,18.60
2018-07-30T04:29:04.951Z,18.60
2018-07-30T04:30:04.927Z,18.62
2018-07-30T04:31:04.919Z,18.68
2018-07-30T04:32:04.910Z,18.71
2018-07-30T04:33:04.919Z,18.66
2018-07-30T04:34:04.891Z,18.71
2018-07-30T04:35:04.881Z,18.75
2018-07-30T04:36:04.870Z,18.66
2018-07-30T04:37:04.869Z,18.70
2018-07-30T04:38:04.851Z,18.78
2018-07-30T04:39:04.836Z,18.77
2018-07-30T04:40:04.855Z,18.84
2018-07-30T04:41:04.819Z,18.83
2018-07-30T04:42:04.827Z,18.92
2018-07-30T04:43:04.790Z,18.89
2018-07-30T04:44:04.780Z,18.93
2018-07-30T04:45:04.768Z,18.95
2018-07-30T04:46:04.765Z,18.89
2018-07-30T04:47:04.756Z,18.93
2018-07-30T04:48:04.744Z,18.90
2018-07-30T04:49:04.751Z,18.88
2018-07-30T04:50:04.720Z,18.77
2018-07-30T04:51:04.709Z,18.71
2018-07-30T04:52:04.727Z,18.73
2018-07-30T04:53:04.703Z,18.58
2018-07-30T04:54:04.684Z,18.59
2018-07-30T04:55:04.665Z,18.56
2018-07-30T04:56:04.652Z,18.58
2018-07-30T04:57:04.675Z,18.52
2018-07-30T04:58:04.638Z,18.50
2018-07-30T04:59:04.623Z,18.62
2018-07-30T05:00:04.629Z,18.89
2018-07-30T05:01:04.606Z,18.89
2018-07-30T05:02:04.589Z,18.84
2018-07-30T05:03:04.580Z,18.92
2018-07-30T05:04:04.568Z,18.93
2018-07-30T05:05:04.555Z,19.08
2018-07-30T05:06:04.558Z,19.14
2018-07-30T05:07:04.549Z,19.12
2018-07-30T05:08:04.527Z,19.19
2018-07-30T05:09:04.512Z,19.15
2018-07-30T05:10:04.509Z,19.16
2018-07-30T05:11:04.499Z,19.19
2018-07-30T05:12:04.498Z,19.19
2018-07-30T05:13:04.478Z,19.19
2018-07-30T05:14:04.458Z,19.14
2018-07-30T05:15:04.481Z,19.27
2018-07-30T05:16:04.445Z,19.30
2018-07-30T05:17:04.433Z,19.24
2018-07-30T05:18:04.449Z,19.24
2018-07-30T05:19:04.408Z,19.24
2018-07-30T05:20:04.400Z,19.02
2018-07-30T05:21:04.397Z,19.04
2018-07-30T05:22:04.372Z,19.11
2018-07-30T05:23:04.363Z,19.07
2018-07-30T05:24:04.357Z,18.93
2018-07-30T05:25:04.347Z,18.93
2018-07-30T05:26:04.340Z,18.86
2018-07-30T05:27:04.321Z,18.81
2018-07-30T05:28:04.310Z,18.77
2018-07-30T05:29:04.299Z,18.74
2018-07-30T05:30:04.296Z,18.73
2018-07-30T05:31:04.279Z,18.73
2018-07-30T05:32:04.275Z,18.71
2018-07-30T05:33:04.275Z,18.74
2018-07-30T05:34:04.255Z,18.73
2018-07-30T05:35:04.247Z,18.62
2018-07-30T05:36:04.267Z,18.68
2018-07-30T05:37:04.229Z,18.73
2018-07-30T05:38:04.238Z,18.71
2018-07-30T05:39:04.248Z,18.58
2018-07-30T05:40:04.179Z,18.63
2018-07-30T05:41:04.165Z,18.66
2018-07-30T05:42:04.160Z,18.70
2018-07-30T05:43:04.158Z,18.81
2018-07-30T05:44:04.137Z,18.80
2018-07-30T05:45:04.139Z,18.78
2018-07-30T05:46:04.113Z,18.89
2018-07-30T05:47:04.103Z,18.86
2018-07-30T05:48:04.088Z,18.90
2018-07-30T05:49:04.091Z,19.11
2018-07-30T05:50:04.125Z,19.15
2018-07-30T05:51:04.062Z,19.21
2018-07-30T05:52:04.049Z,19.30
2018-07-30T05:53:04.041Z,19.34
2018-07-30T05:54:04.022Z,19.30
2018-07-30T05:55:04.019Z,19.41
2018-07-30T05:56:04.008Z,19.54
2018-07-30T05:57:04.008Z,19.69
2018-07-30T05:58:03.981Z,19.73
2018-07-30T05:59:03.969Z,19.88
2018-07-30T06:00:03.960Z,19.89
2018-07-30T06:01:03.945Z,20.07
2018-07-30T06:02:03.941Z,20.32
2018-07-30T06:03:03.929Z,20.51
2018-07-30T06:04:03.918Z,20.63
2018-07-30T06:05:03.927Z,20.66
2018-07-30T06:06:03.894Z,20.80
2018-07-30T06:07:03.884Z,20.88
2018-07-30T06:08:03.887Z,20.93
2018-07-30T06:09:03.860Z,20.84
2018-07-30T06:10:03.880Z,20.93
2018-07-30T06:11:03.841Z,20.93
2018-07-30T06:12:03.832Z,20.92
2018-07-30T06:13:03.813Z,21.02
2018-07-30T06:14:03.808Z,20.90
2018-07-30T06:15:03.797Z,20.92
2018-07-30T06:16:03.798Z,20.92
2018-07-30T06:17:03.777Z,20.96
2018-07-30T06:18:03.779Z,21.03
2018-07-30T06:19:03.749Z,21.02
2018-07-30T06:20:03.751Z,21.03
2018-07-30T06:21:03.838Z,21.09
2018-07-30T06:22:03.729Z,21.11
2018-07-30T06:23:03.725Z,21.14
2018-07-30T06:24:03.700Z,21.17
2018-07-30T06:25:03.699Z,21.21
2018-07-30T06:26:03.706Z,21.30
2018-07-30T06:27:03.663Z,21.32
2018-07-30T06:28:03.654Z,21.42
2018-07-30T06:29:03.646Z,21.54
2018-07-30T06:30:03.629Z,21.52
2018-07-30T06:31:03.648Z,21.64
2018-07-30T06:32:03.609Z,21.69
2018-07-30T06:33:03.596Z,21.83
2018-07-30T06:34:03.592Z,21.96
2018-07-30T06:35:03.593Z,21.99
2018-07-30T06:36:03.569Z,21.96
2018-07-30T06:37:03.564Z,22.06
2018-07-30T06:38:03.542Z,22.18
2018-07-30T06:39:03.562Z,22.30
2018-07-30T06:40:03.523Z,22.36
2018-07-30T06:41:03.526Z,22.47
2018-07-30T06:42:03.508Z,22.54
2018-07-30T06:43:03.493Z,22.55
2018-07-30T06:44:03.480Z,22.69
2018-07-30T06:45:03.473Z,22.73
2018-07-30T06:46:03.463Z,22.63
2018-07-30T06:47:03.527Z,22.69
2018-07-30T06:48:03.568Z,22.73
2018-07-30T06:49:03.434Z,22.75
2018-07-30T06:50:03.414Z,22.87
2018-07-30T06:51:03.413Z,22.90
2018-07-30T06:52:03.398Z,22.96
2018-07-30T06:53:03.385Z,22.96
2018-07-30T06:54:03.386Z,23.28
2018-07-30T06:55:03.367Z,23.32
2018-07-30T06:56:03.355Z,23.34
2018-07-30T06:57:03.347Z,23.54
2018-07-30T06:58:03.327Z,23.63
2018-07-30T06:59:03.324Z,23.74
2018-07-30T07:00:03.338Z,23.87
2018-07-30T07:01:03.304Z,23.92
2018-07-30T07:02:03.388Z,23.92
2018-07-30T07:03:03.282Z,24.06
2018-07-30T07:04:03.269Z,24.16
2018-07-30T07:05:03.256Z,23.98
2018-07-30T07:06:03.248Z,24.11
2018-07-30T07:07:03.241Z,24.21
2018-07-30T07:08:03.251Z,24.28
2018-07-30T07:09:03.255Z,24.28
2018-07-30T07:10:03.212Z,24.30
2018-07-30T07:11:03.225Z,24.36
2018-07-30T07:12:03.240Z,24.36
2018-07-30T07:13:03.169Z,24.38
2018-07-30T07:14:03.165Z,24.42
2018-07-30T07:15:03.150Z,24.50
2018-07-30T07:16:03.136Z,24.53
2018-07-30T07:17:03.259Z,24.50
2018-07-30T07:18:03.156Z,24.50
2018-07-30T07:19:03.106Z,24.50
2018-07-30T07:20:03.109Z,24.39
2018-07-30T07:21:03.115Z,24.54
2018-07-30T07:22:03.159Z,24.55
2018-07-30T07:23:03.070Z,24.48
2018-07-30T07:24:03.082Z,24.58
2018-07-30T07:25:03.041Z,24.66
2018-07-30T07:26:03.037Z,24.84
2018-07-30T07:27:03.056Z,24.99
2018-07-30T07:28:03.112Z,25.10
2018-07-30T07:29:03.042Z,25.36
2018-07-30T07:30:02.997Z,25.54
2018-07-30T07:31:02.979Z,25.75
2018-07-30T07:32:02.999Z,25.93
2018-07-30T07:33:02.959Z,26.18
2018-07-30T07:34:02.948Z,26.29
2018-07-30T07:35:02.979Z,26.37
2018-07-30T07:36:02.935Z,26.34
2018-07-30T07:37:02.913Z,26.45
2018-07-30T07:38:02.904Z,26.37
2018-07-30T07:39:02.895Z,26.37
2018-07-30T07:40:02.895Z,26.37
2018-07-30T07:41:02.878Z,26.34
2018-07-30T07:42:02.892Z,26.40
2018-07-30T07:43:02.845Z,26.36
2018-07-30T07:44:02.860Z,26.55
2018-07-30T07:45:02.930Z,26.55
2018-07-30T07:46:02.829Z,26.58
2018-07-30T07:47:02.809Z,26.60
2018-07-30T07:48:02.794Z,26.85
2018-07-30T07:49:02.788Z,26.96
2018-07-30T07:50:02.787Z,27.08
2018-07-30T07:51:02.986Z,27.15
2018-07-30T07:52:02.760Z,27.17
2018-07-30T07:53:02.753Z,27.39
2018-07-30T07:54:02.732Z,27.36
2018-07-30T07:55:02.746Z,27.39
2018-07-30T07:56:02.709Z,27.32
2018-07-30T07:57:02.711Z,27.32
2018-07-30T07:58:02.695Z,27.49
2018-07-30T07:59:02.688Z,27.40
2018-07-30T08:00:02.868Z,27.58
2018-07-30T08:01:02.689Z,27.60
2018-07-30T08:02:02.708Z,27.55
2018-07-30T08:03:02.640Z,27.64
2018-07-30T08:04:02.632Z,27.67
2018-07-30T08:05:02.622Z,27.65
2018-07-30T08:06:02.641Z,27.52
2018-07-30T08:07:02.593Z,27.67
2018-07-30T08:08:02.590Z,27.75
2018-07-30T08:09:02.575Z,27.78
2018-07-30T08:10:02.585Z,28.02
2018-07-30T08:11:02.640Z,28.20
2018-07-30T08:12:02.557Z,28.47
2018-07-30T08:13:02.540Z,28.64
2018-07-30T08:14:02.538Z,28.89
2018-07-30T08:15:02.518Z,29.01
2018-07-30T08:16:02.525Z,28.89
2018-07-30T08:17:02.499Z,28.82
2018-07-30T08:18:02.487Z,28.96
2018-07-30T08:19:02.477Z,28.91
2018-07-30T08:20:02.460Z,28.94
2018-07-30T08:21:02.473Z,28.97
2018-07-30T08:22:02.445Z,29.04
2018-07-30T08:23:02.437Z,29.10
2018-07-30T08:24:02.448Z,29.20
2018-07-30T08:25:02.422Z,29.24
2018-07-30T08:26:02.436Z,29.14
2018-07-30T08:27:02.388Z,29.14
2018-07-30T08:28:02.378Z,29.07
2018-07-30T08:29:02.459Z,29.04
2018-07-30T08:30:02.363Z,29.19
2018-07-30T08:31:02.353Z,29.13
2018-07-30T08:32:02.345Z,29.04
2018-07-30T08:33:02.407Z,29.13
2018-07-30T08:34:02.319Z,29.12
2018-07-30T08:35:02.305Z,29.10
2018-07-30T08:36:02.300Z,28.98
2018-07-30T08:37:02.296Z,28.89
2018-07-30T08:38:02.275Z,28.88
2018-07-30T08:39:02.262Z,28.79
2018-07-30T08:40:02.263Z,28.85
2018-07-30T08:41:02.244Z,28.76
2018-07-30T08:42:02.243Z,28.67
2018-07-30T08:43:02.229Z,28.57
2018-07-30T08:44:02.227Z,28.69
2018-07-30T08:45:02.234Z,28.59
2018-07-30T08:46:02.195Z,28.60
2018-07-30T08:47:02.211Z,28.59
2018-07-30T08:48:02.183Z,28.76
2018-07-30T08:49:02.192Z,28.86
2018-07-30T08:50:02.161Z,29.05
2018-07-30T08:51:02.164Z,29.02
2018-07-30T08:52:02.129Z,29.16
2018-07-30T08:53:02.140Z,29.22
2018-07-30T08:54:02.115Z,29.42
2018-07-30T08:55:02.106Z,29.54
2018-07-30T08:56:02.100Z,29.82
2018-07-30T08:57:02.085Z,29.94
2018-07-30T08:58:02.085Z,30.31
2018-07-30T08:59:02.068Z,30.47
2018-07-30T09:00:02.068Z,30.50
2018-07-30T09:01:02.041Z,30.59
2018-07-30T09:02:02.034Z,30.35
2018-07-30T09:03:02.028Z,30.48
2018-07-30T09:04:02.021Z,30.23
2018-07-30T09:05:02.003Z,29.81
2018-07-30T09:06:02.003Z,29.86
2018-07-30T09:07:02.003Z,30.10
2018-07-30T09:08:02.932Z,30.08
2018-07-30T09:09:01.962Z,30.08
2018-07-30T09:10:01.950Z,30.25
2018-07-30T09:11:01.939Z,30.48
2018-07-30T09:12:01.930Z,30.70
2018-07-30T09:13:01.941Z,30.91
2018-07-30T09:14:01.916Z,30.73
2018-07-30T09:15:01.911Z,30.63
2018-07-30T09:16:01.903Z,30.87
2018-07-30T09:17:01.887Z,31.12
2018-07-30T09:18:01.873Z,31.33
2018-07-30T09:19:01.863Z,31.55
2018-07-30T09:20:01.874Z,31.76
2018-07-30T09:21:01.863Z,31.74
2018-07-30T09:22:01.836Z,31.43
2018-07-30T09:23:01.826Z,31.25
2018-07-30T09:24:01.826Z,31.10
2018-07-30T09:25:01.803Z,31.17
2018-07-30T09:26:01.813Z,31.27
2018-07-30T09:27:01.790Z,31.34
2018-07-30T09:28:01.799Z,31.44
2018-07-30T09:29:01.770Z,31.58
2018-07-30T09:30:01.755Z,31.61
2018-07-30T09:31:01.744Z,31.81
2018-07-30T09:32:01.743Z,31.87
2018-07-30T09:33:01.970Z,31.66
2018-07-30T09:34:01.722Z,31.76
2018-07-30T09:35:01.711Z,31.90
2018-07-30T09:36:01.711Z,32.03
2018-07-30T09:37:01.690Z,32.08
2018-07-30T09:38:01.692Z,32.09
2018-07-30T09:39:01.762Z,31.87
2018-07-30T09:40:01.663Z,31.59
2018-07-30T09:41:01.650Z,31.85
2018-07-30T09:42:01.638Z,31.85
2018-07-30T09:43:01.634Z,31.92
2018-07-30T09:44:01.642Z,31.93
2018-07-30T09:45:01.619Z,31.90
2018-07-30T09:46:01.601Z,32.16
2018-07-30T09:47:01.592Z,32.18
2018-07-30T09:48:01.585Z,32.31
2018-07-30T09:49:01.608Z,32.49
2018-07-30T09:50:01.564Z,32.48
2018-07-30T09:51:01.545Z,32.43
2018-07-30T09:52:01.542Z,32.45
2018-07-30T09:53:01.540Z,32.16
2018-07-30T09:54:01.561Z,32.21
2018-07-30T09:55:01.511Z,32.30
2018-07-30T09:56:01.494Z,32.29
2018-07-30T09:57:01.509Z,32.16
2018-07-30T09:58:01.482Z,32.04
2018-07-30T09:59:01.480Z,32.00
2018-07-30T10:00:01.468Z,32.14
2018-07-30T10:01:01.447Z,31.90
2018-07-30T10:02:01.435Z,31.71
2018-07-30T10:03:01.426Z,31.58
2018-07-30T10:04:01.412Z,31.58
2018-07-30T10:05:01.411Z,31.62
2018-07-30T10:06:01.472Z,31.54
2018-07-30T10:07:01.387Z,31.49
2018-07-30T10:08:01.397Z,31.37
2018-07-30T10:09:01.364Z,31.24
2018-07-30T10:10:01.401Z,31.22
2018-07-30T10:11:01.342Z,31.15
2018-07-30T10:12:01.347Z,31.12
2018-07-30T10:13:01.357Z,31.20
2018-07-30T10:14:01.313Z,31.10
2018-07-30T10:15:01.299Z,31.15
2018-07-30T10:16:01.306Z,31.14
2018-07-30T10:17:01.280Z,31.14
2018-07-30T10:18:01.359Z,31.22
2018-07-30T10:19:01.265Z,31.03
2018-07-30T10:20:01.256Z,31.14
2018-07-30T10:21:01.253Z,31.21
2018-07-30T10:22:01.230Z,31.15
2018-07-30T10:23:01.220Z,31.14
2018-07-30T10:24:01.207Z,31.09
2018-07-30T10:25:01.246Z,31.20
2018-07-30T10:26:01.199Z,31.20
2018-07-30T10:27:01.203Z,31.21
2018-07-30T10:28:01.167Z,31.02
2018-07-30T10:29:01.159Z,31.29
2018-07-30T10:30:01.170Z,31.29
2018-07-30T10:31:01.186Z,31.33
2018-07-30T10:32:01.168Z,31.39
2018-07-30T10:33:01.128Z,31.39
2018-07-30T10:34:01.115Z,31.18
2018-07-30T10:35:01.097Z,31.28
2018-07-30T10:36:01.095Z,31.34
2018-07-30T10:37:01.093Z,31.47
2018-07-30T10:38:01.087Z,31.47
2018-07-30T10:39:01.061Z,31.39
2018-07-30T10:40:01.052Z,31.43
2018-07-30T10:41:01.039Z,31.37
2018-07-30T10:42:01.057Z,31.31
2018-07-30T10:43:01.023Z,31.31
2018-07-30T10:44:01.011Z,31.24
2018-07-30T10:45:00.998Z,31.20
2018-07-30T10:46:00.986Z,31.12
2018-07-30T10:47:00.976Z,31.21
2018-07-30T10:48:00.966Z,31.15
2018-07-30T10:49:00.957Z,31.06
2018-07-30T10:50:00.956Z,31.20
2018-07-30T10:51:00.940Z,31.15
2018-07-30T10:52:00.935Z,31.33
2018-07-30T10:53:00.918Z,31.47
2018-07-30T10:54:00.903Z,31.47
2018-07-30T10:55:00.895Z,31.47
2018-07-30T10:56:00.891Z,31.52
2018-07-30T10:57:00.876Z,31.51
2018-07-30T10:58:00.875Z,31.59
2018-07-30T10:59:00.852Z,31.44
2018-07-30T11:00:00.852Z,31.54
2018-07-30T11:01:00.841Z,31.66
2018-07-30T11:02:00.832Z,31.73
2018-07-30T11:03:00.819Z,31.73
2018-07-30T11:04:00.804Z,31.77
2018-07-30T11:05:00.792Z,31.73
2018-07-30T11:06:00.782Z,31.85
2018-07-30T11:07:00.775Z,31.93
2018-07-30T11:08:00.764Z,31.76
2018-07-30T11:09:00.754Z,31.74
2018-07-30T11:10:00.756Z,31.89
2018-07-30T11:11:00.745Z,31.99
2018-07-30T11:12:00.727Z,31.92
2018-07-30T11:13:00.733Z,31.87
2018-07-30T11:14:00.745Z,31.96
2018-07-30T11:15:00.720Z,32.03
2018-07-30T11:16:00.682Z,32.07
2018-07-30T11:17:00.669Z,32.04
2018-07-30T11:18:00.686Z,31.73
2018-07-30T11:19:00.647Z,31.89
2018-07-30T11:20:00.640Z,32.00
2018-07-30T11:21:00.633Z,31.97
2018-07-30T11:22:00.626Z,32.00
2018-07-30T11:23:00.616Z,32.09
2018-07-30T11:24:00.610Z,32.09
2018-07-30T11:25:00.599Z,32.19
2018-07-30T11:26:00.584Z,32.31
2018-07-30T11:27:00.572Z,32.52
2018-07-30T11:28:00.639Z,32.58
2018-07-30T11:29:00.565Z,32.68
2018-07-30T11:30:00.556Z,32.85
2018-07-30T11:31:00.536Z,32.92
2018-07-30T11:32:00.527Z,33.37
2018-07-30T11:33:00.521Z,33.40
2018-07-30T11:34:00.557Z,33.59
2018-07-30T11:35:00.516Z,33.74
2018-07-30T11:36:00.499Z,33.65
2018-07-30T11:37:00.485Z,33.67
2018-07-30T11:38:00.493Z,33.87
2018-07-30T11:39:00.466Z,34.24
2018-07-30T11:40:00.468Z,34.58
2018-07-30T11:41:00.458Z,35.08
2018-07-30T11:42:00.441Z,35.08
2018-07-30T11:43:00.485Z,34.93
2018-07-30T11:44:00.425Z,35.26
2018-07-30T11:45:00.414Z,35.56
2018-07-30T11:46:00.416Z,35.97
2018-07-30T11:47:00.398Z,36.25
2018-07-30T11:48:00.403Z,36.57
2018-07-30T11:49:00.385Z,36.95
2018-07-30T11:50:00.378Z,37.10
2018-07-30T11:51:00.370Z,37.28
2018-07-30T11:52:00.357Z,37.49
2018-07-30T11:53:00.363Z,37.71
2018-07-30T11:54:00.408Z,37.94
2018-07-30T11:55:00.382Z,38.20
2018-07-30T11:56:00.336Z,38.05
2018-07-30T11:57:00.355Z,37.83
2018-07-30T11:58:00.349Z,37.82
2018-07-30T11:59:00.329Z,38.28
2018-07-30T12:00:00.292Z,38.27
2018-07-30T12:01:00.347Z,38.57
2018-07-30T12:02:00.289Z,39.06
2018-07-30T12:03:00.286Z,39.22
2018-07-30T12:04:00.263Z,39.52
2018-07-30T12:05:00.263Z,39.41
2018-07-30T12:06:00.259Z,39.59
2018-07-30T12:07:00.248Z,39.75
2018-07-30T12:08:00.286Z,39.44
2018-07-30T12:09:00.233Z,39.17
2018-07-30T12:10:00.230Z,38.95
2018-07-30T12:11:00.270Z,39.21
2018-07-30T12:12:00.208Z,39.70
2018-07-30T12:13:00.210Z,39.92
2018-07-30T12:14:00.202Z,40.23
2018-07-30T12:15:00.196Z,39.90
2018-07-30T12:16:00.195Z,39.51
2018-07-30T12:17:00.173Z,39.77
2018-07-30T12:18:00.175Z,39.52
2018-07-30T12:19:00.165Z,39.26
2018-07-30T12:20:00.184Z,38.97
2018-07-30T12:21:00.146Z,38.50
2018-07-30T12:22:00.151Z,38.45
2018-07-30T12:23:00.137Z,38.87
2018-07-30T12:24:00.124Z,39.80
2018-07-30T12:25:00.128Z,40.23
2018-07-30T12:26:00.117Z,39.65
2018-07-30T12:27:00.127Z,38.15
2018-07-30T12:28:00.100Z,37.26
2018-07-30T12:29:00.085Z,37.35
2018-07-30T12:30:00.110Z,36.62
2018-07-30T12:31:00.072Z,36.07
2018-07-30T12:32:00.089Z,35.48
2018-07-30T12:33:00.062Z,36.20
2018-07-30T12:34:00.052Z,36.83
2018-07-30T12:35:00.039Z,37.18
2018-07-30T12:36:00.028Z,38.11
2018-07-30T12:37:00.031Z,38.99
2018-07-30T12:38:00.029Z,39.22
2018-07-30T12:39:00.011Z,39.77
2018-07-30T12:40:00.005Z,40.26
2018-07-30T12:40:59.993Z,40.88
2018-07-30T12:42:00.069Z,41.45
2018-07-30T12:43:00.042Z,41.80
2018-07-30T12:43:59.971Z,41.99
2018-07-30T12:44:59.994Z,42.57
2018-07-30T12:45:59.982Z,42.47
2018-07-30T12:46:59.969Z,42.76
2018-07-30T12:47:59.983Z,42.04
2018-07-30T12:48:59.936Z,41.95
2018-07-30T12:49:59.929Z,40.31
2018-07-30T12:50:59.929Z,38.60
2018-07-30T12:51:59.927Z,37.97